sensor_id;sensor_type;location;lat;lon;timestamp;pressure;altitude;pressure_sealevel;temperature;humidity
12969;BME280;6549;53.128;8.182;2023-01-26T00:01:39;102212.16;;;-1.71;100.00
12969;BME280;6549;53.128;8.182;2023-01-26T00:04:39;102217.03;;;-1.68;100.00
12969;BME280;6549;53.128;8.182;2023-01-26T00:07:40;102207.84;;;-1.67;100.00
12969;BME280;6549;53.128;8.182;2023-01-26T00:10:44;102199.22;;;-1.69;100.00
12969;BME280;6549;53.128;8.182;2023-01-26T00:13:50;102198.41;;;-1.70;100.00
12969;BME280;6549;53.128;8.182;2023-01-26T00:16:50;102191.41;;;-1.71;100.00
12969;BME280;6549;53.128;8.182;2023-01-26T00:19:54;102191.97;;;-1.69;100.00
12969;BME280;6549;53.128;8.182;2023-01-26T00:22:55;102187.91;;;-1.71;100.00
12969;BME280;6549;53.128;8.182;2023-01-26T00:25:55;102182.25;;;-1.70;100.00
12969;BME280;6549;53.128;8.182;2023-01-26T00:28:56;102180.06;;;-1.68;100.00
12969;BME280;6549;53.128;8.182;2023-01-26T00:31:56;102184.41;;;-1.67;100.00
12969;BME280;6549;53.128;8.182;2023-01-26T00:34:56;102175.25;;;-1.66;100.00
12969;BME280;6549;53.128;8.182;2023-01-26T00:37:57;102171.47;;;-1.70;100.00
12969;BME280;6549;53.128;8.182;2023-01-26T00:40:57;102170.09;;;-1.67;100.00
12969;BME280;6549;53.128;8.182;2023-01-26T00:43:57;102171.22;;;-1.68;100.00
12969;BME280;6549;53.128;8.182;2023-01-26T00:46:58;102167.41;;;-1.67;100.00
12969;BME280;6549;53.128;8.182;2023-01-26T00:49:58;102169.59;;;-1.64;100.00
12969;BME280;6549;53.128;8.182;2023-01-26T00:52:59;102177.69;;;-1.64;100.00
12969;BME280;6549;53.128;8.182;2023-01-26T00:55:59;102164.47;;;-1.61;100.00
12969;BME280;6549;53.128;8.182;2023-01-26T00:58:59;102157.44;;;-1.62;100.00
12969;BME280;6549;53.128;8.182;2023-01-26T01:02:00;102160.69;;;-1.60;100.00
12969;BME280;6549;53.128;8.182;2023-01-26T01:05:01;102157.19;;;-1.60;100.00
12969;BME280;6549;53.128;8.182;2023-01-26T01:08:02;102158.00;;;-1.60;100.00
12969;BME280;6549;53.128;8.182;2023-01-26T01:11:04;102166.88;;;-1.59;100.00
12969;BME280;6549;53.128;8.182;2023-01-26T01:14:04;102158.28;;;-1.56;100.00
12969;BME280;6549;53.128;8.182;2023-01-26T01:17:05;102156.63;;;-1.62;100.00
12969;BME280;6549;53.128;8.182;2023-01-26T01:20:09;102155.56;;;-1.61;100.00
12969;BME280;6549;53.128;8.182;2023-01-26T01:23:10;102158.78;;;-1.59;100.00
12969;BME280;6549;53.128;8.182;2023-01-26T01:26:11;102164.72;;;-1.57;100.00
12969;BME280;6549;53.128;8.182;2023-01-26T01:29:12;102165.28;;;-1.55;100.00
12969;BME280;6549;53.128;8.182;2023-01-26T01:32:13;102153.94;;;-1.57;100.00
12969;BME280;6549;53.128;8.182;2023-01-26T01:35:13;102153.94;;;-1.57;100.00
12969;BME280;6549;53.128;8.182;2023-01-26T01:38:13;102156.38;;;-1.56;100.00
12969;BME280;6549;53.128;8.182;2023-01-26T01:41:18;102153.41;;;-1.54;100.00
12969;BME280;6549;53.128;8.182;2023-01-26T01:44:23;102152.31;;;-1.53;100.00
12969;BME280;6549;53.128;8.182;2023-01-26T01:47:24;102153.69;;;-1.51;100.00
12969;BME280;6549;53.128;8.182;2023-01-26T01:50:26;102147.75;;;-1.53;100.00
12969;BME280;6549;53.128;8.182;2023-01-26T01:53:32;102153.69;;;-1.51;100.00
12969;BME280;6549;53.128;8.182;2023-01-26T01:56:34;102152.06;;;-1.52;100.00
12969;BME280;6549;53.128;8.182;2023-01-26T01:59:36;102151.50;;;-1.49;100.00
12969;BME280;6549;53.128;8.182;2023-01-26T02:02:36;102149.88;;;-1.50;100.00
12969;BME280;6549;53.128;8.182;2023-01-26T02:09:06;102143.69;;;-1.45;100.00
12969;BME280;6549;53.128;8.182;2023-01-26T02:12:10;102146.13;;;-1.49;100.00
12969;BME280;6549;53.128;8.182;2023-01-26T02:15:12;102146.13;;;-1.49;100.00
12969;BME280;6549;53.128;8.182;2023-01-26T02:18:12;102147.75;;;-1.48;100.00
12969;BME280;6549;53.128;8.182;2023-01-26T02:21:16;102147.19;;;-1.45;100.00
12969;BME280;6549;53.128;8.182;2023-01-26T02:24:25;102139.41;;;-1.46;100.00
12969;BME280;6549;53.128;8.182;2023-01-26T02:27:27;102140.19;;;-1.46;100.00
12969;BME280;6549;53.128;8.182;2023-01-26T02:30:28;102148.00;;;-1.44;100.00
12969;BME280;6549;53.128;8.182;2023-01-26T02:33:30;102140.19;;;-1.41;100.00
12969;BME280;6549;53.128;8.182;2023-01-26T02:36:32;102133.72;;;-1.40;100.00
12969;BME280;6549;53.128;8.182;2023-01-26T02:39:50;102132.66;;;-1.39;100.00
12969;BME280;6549;53.128;8.182;2023-01-26T02:42:52;102133.97;;;-1.36;100.00
12969;BME280;6549;53.128;8.182;2023-01-26T02:45:53;102128.31;;;-1.34;100.00
12969;BME280;6549;53.128;8.182;2023-01-26T02:48:54;102123.44;;;-1.32;100.00
12969;BME280;6549;53.128;8.182;2023-01-26T02:52:14;102116.97;;;-1.31;100.00
12969;BME280;6549;53.128;8.182;2023-01-26T02:55:15;102117.53;;;-1.29;100.00
12969;BME280;6549;53.128;8.182;2023-01-26T02:58:21;102130.72;;;-1.28;100.00
12969;BME280;6549;53.128;8.182;2023-01-26T03:01:21;102128.84;;;-1.27;100.00
12969;BME280;6549;53.128;8.182;2023-01-26T03:04:22;102126.69;;;-1.25;100.00
12969;BME280;6549;53.128;8.182;2023-01-26T03:07:22;102120.22;;;-1.24;100.00
12969;BME280;6549;53.128;8.182;2023-01-26T03:10:22;102120.22;;;-1.24;100.00
12969;BME280;6549;53.128;8.182;2023-01-26T03:13:26;102116.41;;;-1.23;100.00
12969;BME280;6549;53.128;8.182;2023-01-26T03:16:26;102117.22;;;-1.23;100.00
12969;BME280;6549;53.128;8.182;2023-01-26T03:19:26;102112.66;;;-1.22;100.00
12969;BME280;6549;53.128;8.182;2023-01-26T03:22:45;102122.09;;;-1.20;100.00
12969;BME280;6549;53.128;8.182;2023-01-26T03:26:04;102119.09;;;-1.18;100.00
12969;BME280;6549;53.128;8.182;2023-01-26T03:29:23;102115.59;;;-1.19;100.00
12969;BME280;6549;53.128;8.182;2023-01-26T03:32:25;102108.31;;;-1.18;100.00
12969;BME280;6549;53.128;8.182;2023-01-26T03:35:25;102110.50;;;-1.20;100.00
12969;BME280;6549;53.128;8.182;2023-01-26T03:38:26;102109.94;;;-1.17;100.00
12969;BME280;6549;53.128;8.182;2023-01-26T03:41:27;102108.06;;;-1.17;100.00
12969;BME280;6549;53.128;8.182;2023-01-26T03:44:46;102110.50;;;-1.15;100.00
12969;BME280;6549;53.128;8.182;2023-01-26T03:48:07;102106.69;;;-1.14;100.00
12969;BME280;6549;53.128;8.182;2023-01-26T03:51:26;102099.97;;;-1.12;100.00
12969;BME280;6549;53.128;8.182;2023-01-26T03:54:44;102098.06;;;-1.11;100.00
12969;BME280;6549;53.128;8.182;2023-01-26T03:58:03;102094.81;;;-1.13;100.00
12969;BME280;6549;53.128;8.182;2023-01-26T04:01:03;102095.38;;;-1.11;100.00
12969;BME280;6549;53.128;8.182;2023-01-26T04:04:07;102096.97;;;-1.10;100.00
12969;BME280;6549;53.128;8.182;2023-01-26T04:07:26;102092.13;;;-1.08;100.00
12969;BME280;6549;53.128;8.182;2023-01-26T04:10:45;102093.19;;;-1.04;100.00
12969;BME280;6549;53.128;8.182;2023-01-26T04:13:45;102087.25;;;-1.06;100.00
12969;BME280;6549;53.128;8.182;2023-01-26T04:17:04;102092.09;;;-1.03;100.00
12969;BME280;6549;53.128;8.182;2023-01-26T04:20:23;102090.22;;;-1.03;100.00
12969;BME280;6549;53.128;8.182;2023-01-26T04:23:42;102078.06;;;-1.00;100.00
12969;BME280;6549;53.128;8.182;2023-01-26T04:26:42;102081.81;;;-1.01;100.00
12969;BME280;6549;53.128;8.182;2023-01-26T04:29:43;102079.69;;;-0.99;100.00
12969;BME280;6549;53.128;8.182;2023-01-26T04:32:44;102074.28;;;-0.99;100.00
12969;BME280;6549;53.128;8.182;2023-01-26T04:35:45;102080.75;;;-0.95;100.00
12969;BME280;6549;53.128;8.182;2023-01-26T04:38:45;102080.19;;;-0.97;100.00
12969;BME280;6549;53.128;8.182;2023-01-26T04:41:45;102073.19;;;-0.98;100.00
12969;BME280;6549;53.128;8.182;2023-01-26T04:44:46;102071.03;;;-1.01;100.00
12969;BME280;6549;53.128;8.182;2023-01-26T04:47:46;102068.06;;;-1.00;100.00
12969;BME280;6549;53.128;8.182;2023-01-26T04:50:53;102080.19;;;-0.97;100.00
12969;BME280;6549;53.128;8.182;2023-01-26T04:53:53;102079.13;;;-0.96;100.00
12969;BME280;6549;53.128;8.182;2023-01-26T04:56:53;102069.13;;;-0.96;100.00
12969;BME280;6549;53.128;8.182;2023-01-26T04:59:54;102069.94;;;-0.95;100.00
12969;BME280;6549;53.128;8.182;2023-01-26T05:02:54;102068.31;;;-0.96;100.00
12969;BME280;6549;53.128;8.182;2023-01-26T05:05:54;102065.34;;;-0.95;100.00
12969;BME280;6549;53.128;8.182;2023-01-26T05:08:55;102060.78;;;-0.94;100.00
12969;BME280;6549;53.128;8.182;2023-01-26T05:11:55;102061.59;;;-0.94;100.00
12969;BME280;6549;53.128;8.182;2023-01-26T05:15:16;102061.59;;;-0.94;100.00
12969;BME280;6549;53.128;8.182;2023-01-26T05:18:16;102054.81;;;-0.91;100.00
12969;BME280;6549;53.128;8.182;2023-01-26T05:21:16;102049.16;;;-0.95;100.00
12969;BME280;6549;53.128;8.182;2023-01-26T05:24:17;102055.38;;;-0.94;100.00
12969;BME280;6549;53.128;8.182;2023-01-26T05:27:17;102055.09;;;-0.93;100.00
12969;BME280;6549;53.128;8.182;2023-01-26T05:30:20;102049.16;;;-0.89;100.00
12969;BME280;6549;53.128;8.182;2023-01-26T05:33:22;102048.03;;;-0.88;100.00
12969;BME280;6549;53.128;8.182;2023-01-26T05:36:22;102044.56;;;-0.89;100.00
12969;BME280;6549;53.128;8.182;2023-01-26T05:39:22;102055.34;;;-0.89;100.00
12969;BME280;6549;53.128;8.182;2023-01-26T05:42:23;102059.13;;;-0.85;100.00
12969;BME280;6549;53.128;8.182;2023-01-26T05:45:24;102054.78;;;-0.86;100.00
12969;BME280;6549;53.128;8.182;2023-01-26T05:48:24;102066.09;;;-0.84;100.00
12969;BME280;6549;53.128;8.182;2023-01-26T05:51:25;102060.72;;;-0.84;100.00
12969;BME280;6549;53.128;8.182;2023-01-26T05:54:25;102060.44;;;-0.82;100.00
12969;BME280;6549;53.128;8.182;2023-01-26T05:57:25;102064.50;;;-0.80;100.00
12969;BME280;6549;53.128;8.182;2023-01-26T06:00:26;102065.28;;;-0.79;100.00
12969;BME280;6549;53.128;8.182;2023-01-26T06:03:27;102062.56;;;-0.79;100.00
12969;BME280;6549;53.128;8.182;2023-01-26T06:06:27;102062.31;;;-0.78;100.00
12969;BME280;6549;53.128;8.182;2023-01-26T06:09:28;102065.00;;;-0.78;100.00
12969;BME280;6549;53.128;8.182;2023-01-26T06:12:28;102066.63;;;-0.77;100.00
12969;BME280;6549;53.128;8.182;2023-01-26T06:15:34;102063.66;;;-0.75;100.00
12969;BME280;6549;53.128;8.182;2023-01-26T06:18:34;102064.44;;;-0.75;100.00
12969;BME280;6549;53.128;8.182;2023-01-26T06:21:35;102069.31;;;-0.72;100.00
12969;BME280;6549;53.128;8.182;2023-01-26T06:24:35;102070.13;;;-0.71;100.00
12969;BME280;6549;53.128;8.182;2023-01-26T06:27:36;102077.91;;;-0.70;100.00
12969;BME280;6549;53.128;8.182;2023-01-26T06:30:40;102071.44;;;-0.69;100.00
12969;BME280;6549;53.128;8.182;2023-01-26T06:33:41;102079.53;;;-0.69;100.00
12969;BME280;6549;53.128;8.182;2023-01-26T06:36:41;102076.84;;;-0.69;100.00
12969;BME280;6549;53.128;8.182;2023-01-26T06:39:42;102084.94;;;-0.69;100.00
12969;BME280;6549;53.128;8.182;2023-01-26T06:42:48;102076.00;;;-0.64;100.00
12969;BME280;6549;53.128;8.182;2023-01-26T06:45:49;102086.00;;;-0.65;100.00
12969;BME280;6549;53.128;8.182;2023-01-26T06:48:49;102082.22;;;-0.64;100.00
12969;BME280;6549;53.128;8.182;2023-01-26T06:55:33;102093.25;;;-0.60;100.00
12969;BME280;6549;53.128;8.182;2023-01-26T06:58:34;102098.09;;;-0.57;100.00
12969;BME280;6549;53.128;8.182;2023-01-26T07:01:41;102095.13;;;-0.56;100.00
12969;BME280;6549;53.128;8.182;2023-01-26T07:04:42;102094.06;;;-0.55;100.00
12969;BME280;6549;53.128;8.182;2023-01-26T07:07:42;102094.88;;;-0.54;100.00
12969;BME280;6549;53.128;8.182;2023-01-26T07:10:43;102100.50;;;-0.51;100.00
12969;BME280;6549;53.128;8.182;2023-01-26T07:13:43;102102.63;;;-0.48;100.00
12969;BME280;6549;53.128;8.182;2023-01-26T07:16:43;102092.41;;;-0.51;100.00
12969;BME280;6549;53.128;8.182;2023-01-26T07:19:44;102102.13;;;-0.50;100.00
12969;BME280;6549;53.128;8.182;2023-01-26T07:22:44;102099.44;;;-0.50;100.00
12969;BME280;6549;53.128;8.182;2023-01-26T07:25:44;102105.63;;;-0.49;100.00
12969;BME280;6549;53.128;8.182;2023-01-26T07:28:45;102111.03;;;-0.49;100.00
12969;BME280;6549;53.128;8.182;2023-01-26T07:31:45;102114.25;;;-0.47;100.00
12969;BME280;6549;53.128;8.182;2023-01-26T07:34:45;102106.69;;;-0.45;100.00
12969;BME280;6549;53.128;8.182;2023-01-26T07:37:46;102107.75;;;-0.41;100.00
12969;BME280;6549;53.128;8.182;2023-01-26T07:40:46;102117.47;;;-0.40;100.00
12969;BME280;6549;53.128;8.182;2023-01-26T07:43:47;102114.78;;;-0.40;100.00
12969;BME280;6549;53.128;8.182;2023-01-26T07:46:49;102112.06;;;-0.40;100.00
12969;BME280;6549;53.128;8.182;2023-01-26T07:49:49;102114.47;;;-0.38;100.00
12969;BME280;6549;53.128;8.182;2023-01-26T07:52:50;102120.41;;;-0.36;100.00
12969;BME280;6549;53.128;8.182;2023-01-26T07:55:51;102116.91;;;-0.37;100.00
12969;BME280;6549;53.128;8.182;2023-01-26T07:58:52;102110.44;;;-0.36;100.00
12969;BME280;6549;53.128;8.182;2023-01-26T08:01:53;102109.03;;;-0.33;100.00
12969;BME280;6549;53.128;8.182;2023-01-26T08:04:53;102112.28;;;-0.31;100.00
12969;BME280;6549;53.128;8.182;2023-01-26T08:07:57;102111.72;;;-0.28;100.00
12969;BME280;6549;53.128;8.182;2023-01-26T08:10:59;102115.75;;;-0.26;100.00
12969;BME280;6549;53.128;8.182;2023-01-26T08:13:59;102127.09;;;-0.24;100.00
12969;BME280;6549;53.128;8.182;2023-01-26T08:17:00;102130.03;;;-0.20;100.00
12969;BME280;6549;53.128;8.182;2023-01-26T08:20:01;102132.75;;;-0.20;100.00
12969;BME280;6549;53.128;8.182;2023-01-26T08:23:01;102130.56;;;-0.18;100.00
12969;BME280;6549;53.128;8.182;2023-01-26T08:26:03;102131.09;;;-0.16;100.00
12969;BME280;6549;53.128;8.182;2023-01-26T08:29:03;102133.53;;;-0.15;100.00
12969;BME280;6549;53.128;8.182;2023-01-26T08:32:04;102139.44;;;-0.13;100.00
12969;BME280;6549;53.128;8.182;2023-01-26T08:35:04;102132.13;;;-0.12;100.00
12969;BME280;6549;53.128;8.182;2023-01-26T08:38:05;102138.59;;;-0.08;100.00
12969;BME280;6549;53.128;8.182;2023-01-26T08:41:05;102136.69;;;-0.08;100.00
12969;BME280;6549;53.128;8.182;2023-01-26T08:44:06;102138.88;;;-0.05;100.00
12969;BME280;6549;53.128;8.182;2023-01-26T08:47:06;102143.69;;;-0.02;100.00
12969;BME280;6549;53.128;8.182;2023-01-26T08:50:08;102149.34;;;0.02;100.00
12969;BME280;6549;53.128;8.182;2023-01-26T08:53:08;102147.97;;;0.05;100.00
12969;BME280;6549;53.128;8.182;2023-01-26T08:56:10;102147.13;;;0.09;100.00
12969;BME280;6549;53.128;8.182;2023-01-26T08:59:11;102142.25;;;0.11;100.00
12969;BME280;6549;53.128;8.182;2023-01-26T09:02:11;102156.25;;;0.18;100.00
12969;BME280;6549;53.128;8.182;2023-01-26T09:05:12;102144.59;;;0.23;100.00
12969;BME280;6549;53.128;8.182;2023-01-26T09:08:12;102153.47;;;0.28;100.00
12969;BME280;6549;53.128;8.182;2023-01-26T09:11:13;102152.38;;;0.34;100.00
12969;BME280;6549;53.128;8.182;2023-01-26T09:14:13;102158.50;;;0.40;100.00
12969;BME280;6549;53.128;8.182;2023-01-26T09:17:14;102164.16;;;0.49;100.00
12969;BME280;6549;53.128;8.182;2023-01-26T09:20:15;102160.53;;;0.58;100.00
12969;BME280;6549;53.128;8.182;2023-01-26T09:23:16;102172.06;;;0.69;100.00
12969;BME280;6549;53.128;8.182;2023-01-26T09:26:17;102163.34;;;0.77;100.00
12969;BME280;6549;53.128;8.182;2023-01-26T09:29:17;102149.19;;;0.85;100.00
12969;BME280;6549;53.128;8.182;2023-01-26T09:32:18;102154.44;;;1.00;100.00
12969;BME280;6549;53.128;8.182;2023-01-26T09:35:18;102154.00;;;1.17;100.00
12969;BME280;6549;53.128;8.182;2023-01-26T09:38:18;102152.72;;;1.33;100.00
12969;BME280;6549;53.128;8.182;2023-01-26T09:44:43;102158.25;;;1.65;100.00
12969;BME280;6549;53.128;8.182;2023-01-26T09:51:41;102150.78;;;2.13;100.00
12969;BME280;6549;53.128;8.182;2023-01-26T09:54:47;102156.97;;;2.19;100.00
12969;BME280;6549;53.128;8.182;2023-01-26T09:57:52;102142.72;;;2.08;100.00
12969;BME280;6549;53.128;8.182;2023-01-26T10:00:59;102142.03;;;2.03;100.00
12969;BME280;6549;53.128;8.182;2023-01-26T10:04:04;102153.38;;;2.05;100.00
12969;BME280;6549;53.128;8.182;2023-01-26T10:07:14;102154.09;;;2.10;100.00
12969;BME280;6549;53.128;8.182;2023-01-26T10:10:25;102146.72;;;2.16;100.00
12969;BME280;6549;53.128;8.182;2023-01-26T10:13:28;102151.81;;;2.17;100.00
12969;BME280;6549;53.128;8.182;2023-01-26T10:16:32;102148.97;;;2.28;100.00
12969;BME280;6549;53.128;8.182;2023-01-26T10:19:36;102149.38;;;2.35;100.00
12969;BME280;6549;53.128;8.182;2023-01-26T10:22:47;102142.28;;;2.39;100.00
12969;BME280;6549;53.128;8.182;2023-01-26T10:25:49;102143.28;;;2.43;100.00
12969;BME280;6549;53.128;8.182;2023-01-26T10:28:51;102159.38;;;2.53;100.00
12969;BME280;6549;53.128;8.182;2023-01-26T10:31:52;102147.47;;;2.67;100.00
12969;BME280;6549;53.128;8.182;2023-01-26T10:34:54;102156.25;;;3.05;100.00
12969;BME280;6549;53.128;8.182;2023-01-26T10:37:54;102142.09;;;2.95;100.00
12969;BME280;6549;53.128;8.182;2023-01-26T10:40:57;102148.91;;;2.92;100.00
12969;BME280;6549;53.128;8.182;2023-01-26T10:44:01;102147.22;;;2.83;100.00
12969;BME280;6549;53.128;8.182;2023-01-26T10:47:16;102142.06;;;2.81;100.00
12969;BME280;6549;53.128;8.182;2023-01-26T10:50:23;102140.97;;;2.82;100.00
12969;BME280;6549;53.128;8.182;2023-01-26T10:53:28;102145.88;;;2.80;100.00
12969;BME280;6549;53.128;8.182;2023-01-26T10:56:28;102146.00;;;2.89;100.00
12969;BME280;6549;53.128;8.182;2023-01-26T10:59:36;102141.69;;;3.15;100.00
12969;BME280;6549;53.128;8.182;2023-01-26T11:02:49;102138.59;;;3.35;100.00
12969;BME280;6549;53.128;8.182;2023-01-26T11:06:12;102143.28;;;3.57;100.00
12969;BME280;6549;53.128;8.182;2023-01-26T11:12:17;102151.16;;;3.94;100.00
12969;BME280;6549;53.128;8.182;2023-01-26T11:15:23;102147.09;;;4.05;100.00
12969;BME280;6549;53.128;8.182;2023-01-26T11:21:36;102139.63;;;4.33;100.00
12969;BME280;6549;53.128;8.182;2023-01-26T11:24:53;102133.28;;;4.69;100.00
12969;BME280;6549;53.128;8.182;2023-01-26T11:31:05;102128.06;;;5.20;100.00
12969;BME280;6549;53.128;8.182;2023-01-26T11:34:41;102119.31;;;5.58;100.00
12969;BME280;6549;53.128;8.182;2023-01-26T11:37:50;102110.38;;;5.57;100.00
12969;BME280;6549;53.128;8.182;2023-01-26T11:47:51;102104.44;;;5.81;100.00
12969;BME280;6549;53.128;8.182;2023-01-26T11:50:56;102097.22;;;5.76;100.00
12969;BME280;6549;53.128;8.182;2023-01-26T11:57:49;102103.84;;;5.93;100.00
12969;BME280;6549;53.128;8.182;2023-01-26T12:01:05;102095.31;;;5.94;100.00
12969;BME280;6549;53.128;8.182;2023-01-26T12:04:16;102099.19;;;6.02;100.00
12969;BME280;6549;53.128;8.182;2023-01-26T12:07:22;102092.28;;;6.04;100.00
12969;BME280;6549;53.128;8.182;2023-01-26T12:10:36;102083.13;;;6.17;100.00
12969;BME280;6549;53.128;8.182;2023-01-26T12:13:41;102076.38;;;6.23;100.00
12969;BME280;6549;53.128;8.182;2023-01-26T12:17:04;102072.50;;;6.42;100.00
12969;BME280;6549;53.128;8.182;2023-01-26T12:20:34;102077.25;;;6.53;100.00
12969;BME280;6549;53.128;8.182;2023-01-26T12:23:55;102076.72;;;6.68;100.00
12969;BME280;6549;53.128;8.182;2023-01-26T12:26:58;102056.03;;;6.59;100.00
12969;BME280;6549;53.128;8.182;2023-01-26T12:33:02;102057.97;;;6.58;100.00
12969;BME280;6549;53.128;8.182;2023-01-26T12:36:07;102058.28;;;6.57;100.00
12969;BME280;6549;53.128;8.182;2023-01-26T12:39:33;102057.47;;;6.56;100.00
12969;BME280;6549;53.128;8.182;2023-01-26T12:46:11;102039.56;;;6.38;100.00
12969;BME280;6549;53.128;8.182;2023-01-26T12:49:18;102033.31;;;6.29;100.00
12969;BME280;6549;53.128;8.182;2023-01-26T12:52:33;102032.53;;;6.20;100.00
12969;BME280;6549;53.128;8.182;2023-01-26T12:55:45;102030.56;;;6.29;100.00
12969;BME280;6549;53.128;8.182;2023-01-26T12:58:47;102028.78;;;6.33;100.00
12969;BME280;6549;53.128;8.182;2023-01-26T13:01:49;102027.81;;;6.38;100.00
12969;BME280;6549;53.128;8.182;2023-01-26T13:04:49;102024.31;;;6.37;100.00
12969;BME280;6549;53.128;8.182;2023-01-26T13:07:50;102032.63;;;6.49;100.00
12969;BME280;6549;53.128;8.182;2023-01-26T13:10:51;102032.91;;;6.56;100.00
12969;BME280;6549;53.128;8.182;2023-01-26T13:13:53;102019.09;;;6.53;100.00
12969;BME280;6549;53.128;8.182;2023-01-26T13:16:54;102022.16;;;6.51;100.00
12969;BME280;6549;53.128;8.182;2023-01-26T13:19:54;102022.81;;;6.48;100.00
12969;BME280;6549;53.128;8.182;2023-01-26T13:22:58;102021.19;;;6.56;100.00
12969;BME280;6549;53.128;8.182;2023-01-26T13:26:19;102016.13;;;6.75;100.00
12969;BME280;6549;53.128;8.182;2023-01-26T13:35:25;102012.44;;;6.71;100.00
12969;BME280;6549;53.128;8.182;2023-01-26T13:38:51;102009.75;;;6.62;100.00
12969;BME280;6549;53.128;8.182;2023-01-26T13:41:53;102017.31;;;6.57;100.00
12969;BME280;6549;53.128;8.182;2023-01-26T13:45:00;102020.19;;;6.60;100.00
12969;BME280;6549;53.128;8.182;2023-01-26T13:48:09;102011.16;;;6.68;100.00
12969;BME280;6549;53.128;8.182;2023-01-26T13:51:18;102010.53;;;6.71;100.00
12969;BME280;6549;53.128;8.182;2023-01-26T13:54:21;102019.03;;;6.70;100.00
12969;BME280;6549;53.128;8.182;2023-01-26T13:57:25;102020.81;;;6.66;100.00
12969;BME280;6549;53.128;8.182;2023-01-26T14:00:25;102023.28;;;6.59;100.00
12969;BME280;6549;53.128;8.182;2023-01-26T14:03:26;102027.34;;;6.44;100.00
12969;BME280;6549;53.128;8.182;2023-01-26T14:06:27;102030.09;;;6.36;100.00
12969;BME280;6549;53.128;8.182;2023-01-26T14:09:29;102027.03;;;6.28;100.00
12969;BME280;6549;53.128;8.182;2023-01-26T14:12:33;102035.56;;;6.27;100.00
12969;BME280;6549;53.128;8.182;2023-01-26T14:15:34;102025.47;;;6.27;100.00
12969;BME280;6549;53.128;8.182;2023-01-26T14:18:35;102035.56;;;6.27;100.00
12969;BME280;6549;53.128;8.182;2023-01-26T14:21:54;102028.66;;;6.29;100.00
12969;BME280;6549;53.128;8.182;2023-01-26T14:24:55;102027.84;;;6.29;100.00
12969;BME280;6549;53.128;8.182;2023-01-26T14:27:55;102018.72;;;6.25;100.00
12969;BME280;6549;53.128;8.182;2023-01-26T14:31:02;102019.19;;;6.27;100.00
12969;BME280;6549;53.128;8.182;2023-01-26T14:34:08;102017.72;;;6.29;100.00
12969;BME280;6549;53.128;8.182;2023-01-26T14:37:14;102011.47;;;6.29;100.00
12969;BME280;6549;53.128;8.182;2023-01-26T14:40:23;102015.81;;;6.30;100.00
12969;BME280;6549;53.128;8.182;2023-01-26T14:43:24;102015.81;;;6.30;100.00
12969;BME280;6549;53.128;8.182;2023-01-26T14:49:59;102013.41;;;6.20;100.00
12969;BME280;6549;53.128;8.182;2023-01-26T14:53:01;102013.41;;;6.20;100.00
12969;BME280;6549;53.128;8.182;2023-01-26T14:56:03;102014.56;;;6.19;100.00
12969;BME280;6549;53.128;8.182;2023-01-26T14:59:05;102012.47;;;6.16;100.00
12969;BME280;6549;53.128;8.182;2023-01-26T15:02:21;102016.97;;;6.12;100.00
12969;BME280;6549;53.128;8.182;2023-01-26T15:05:34;102009.91;;;6.11;100.00
12969;BME280;6549;53.128;8.182;2023-01-26T15:08:35;102011.22;;;6.05;100.00
12969;BME280;6549;53.128;8.182;2023-01-26T15:11:38;102016.84;;;6.00;100.00
12969;BME280;6549;53.128;8.182;2023-01-26T15:14:59;102015.41;;;5.94;100.00
12969;BME280;6549;53.128;8.182;2023-01-26T15:18:21;102023.94;;;5.92;100.00
12969;BME280;6549;53.128;8.182;2023-01-26T15:21:21;102016.19;;;5.85;100.00
12969;BME280;6549;53.128;8.182;2023-01-26T15:24:21;102015.72;;;5.83;100.00
12969;BME280;6549;53.128;8.182;2023-01-26T15:27:22;102022.00;;;5.84;100.00
12969;BME280;6549;53.128;8.182;2023-01-26T15:30:27;102021.81;;;5.80;100.00
12969;BME280;6549;53.128;8.182;2023-01-26T15:33:49;102022.63;;;5.72;100.00
12969;BME280;6549;53.128;8.182;2023-01-26T15:36:50;102028.72;;;5.69;100.00
12969;BME280;6549;53.128;8.182;2023-01-26T15:39:50;102030.50;;;5.65;100.00
12969;BME280;6549;53.128;8.182;2023-01-26T15:43:04;102048.94;;;5.60;100.00
12969;BME280;6549;53.128;8.182;2023-01-26T15:46:04;102047.47;;;5.54;100.00
12969;BME280;6549;53.128;8.182;2023-01-26T15:49:05;102048.44;;;5.49;100.00
12969;BME280;6549;53.128;8.182;2023-01-26T15:52:12;102059.66;;;5.39;100.00
12969;BME280;6549;53.128;8.182;2023-01-26T15:55:26;102053.06;;;5.31;100.00
12969;BME280;6549;53.128;8.182;2023-01-26T15:58:28;102054.66;;;5.24;100.00
12969;BME280;6549;53.128;8.182;2023-01-26T16:01:30;102054.81;;;5.19;100.00
12969;BME280;6549;53.128;8.182;2023-01-26T16:04:31;102063.13;;;5.14;100.00
12969;BME280;6549;53.128;8.182;2023-01-26T16:07:31;102059.94;;;5.12;100.00
12969;BME280;6549;53.128;8.182;2023-01-26T16:10:31;102068.38;;;5.02;100.00
12969;BME280;6549;53.128;8.182;2023-01-26T16:13:32;102058.94;;;4.99;100.00
12969;BME280;6549;53.128;8.182;2023-01-26T16:16:32;102069.16;;;4.93;100.00
12969;BME280;6549;53.128;8.182;2023-01-26T16:19:32;102075.25;;;4.90;100.00
12969;BME280;6549;53.128;8.182;2023-01-26T16:22:33;102077.47;;;4.88;100.00
12969;BME280;6549;53.128;8.182;2023-01-26T16:25:33;102073.47;;;4.86;100.00
12969;BME280;6549;53.128;8.182;2023-01-26T16:28:33;102072.16;;;4.83;100.00
12969;BME280;6549;53.128;8.182;2023-01-26T16:31:34;102068.00;;;4.77;100.00
12969;BME280;6549;53.128;8.182;2023-01-26T16:34:37;102072.47;;;4.73;100.00
12969;BME280;6549;53.128;8.182;2023-01-26T16:37:37;102073.69;;;4.67;100.00
12969;BME280;6549;53.128;8.182;2023-01-26T16:40:46;102072.38;;;4.65;100.00
12969;BME280;6549;53.128;8.182;2023-01-26T16:43:47;102071.75;;;4.59;100.00
12969;BME280;6549;53.128;8.182;2023-01-26T16:46:47;102077.78;;;4.56;100.00
12969;BME280;6549;53.128;8.182;2023-01-26T16:49:48;102075.06;;;4.56;100.00
12969;BME280;6549;53.128;8.182;2023-01-26T16:52:48;102076.50;;;4.53;100.00
12969;BME280;6549;53.128;8.182;2023-01-26T16:55:49;102083.41;;;4.51;100.00
12969;BME280;6549;53.128;8.182;2023-01-26T16:58:49;102085.63;;;4.49;100.00